Terminal Aerodrome Forecast
Issued by NWS Portland, OR

Home | Current Version | Previous Version | Text Only | Print | Product List | Glossary On
Versions: 1 2 3 4 5 6 7 8 9 10 11 12 13 14 15 16 17 18 19 20
000
FTUS46 KPQR 242328
TAFHIO
TAF
KHIO 242328Z 2500/2524 07006KT 6SM -RA OVC050
     FM250600 12006KT 4SM BR BKN050 OVC100
     FM251300 10007KT P6SM SCT040 BKN080
     FM251900 14012G20KT P6SM -RA OVC050=

USA.gov is the U.S. government's official web portal to all federal, state and local government web resources and services.